Time,TemperatureF,DewpointF,PressureIn,WindDirection,WindDirectionDegrees,WindSpeedMPH,WindSpeedGustMPH,Humidity,HourlyPrecipIn,Conditions,Clouds,dailyrainin,SoftwareType,DateUTC
2013-07-07 00:31:00,70.0,63.0,-100.00,SSE,165,1.0,1.0,78,-99.99,,,-99.99,,2013-07-07 05:31:00,
2013-07-07 00:41:00,70.0,63.0,-100.00,South,175,1.0,1.0,77,-99.99,,,-99.99,,2013-07-07 05:41:00,
2013-07-07 00:51:00,70.0,63.0,-100.00,South,175,1.0,1.0,77,-99.99,,,-99.99,,2013-07-07 05:51:00,
2013-07-07 01:11:00,71.0,63.0,-100.00,SSE,150,1.0,1.0,78,-99.99,,,-99.99,,2013-07-07 06:11:00,
2013-07-07 01:21:00,71.0,63.0,-100.00,SSE,150,1.0,1.0,78,-99.99,,,-99.99,,2013-07-07 06:21:00,
2013-07-07 02:11:00,69.0,63.0,-100.00,SSW,210,1.0,1.0,81,-99.99,,,-99.99,,2013-07-07 07:11:00,
2013-07-07 02:22:00,69.0,63.0,-100.00,SSW,210,1.0,1.0,81,-99.99,,,-99.99,,2013-07-07 07:22:00,
2013-07-07 02:33:00,69.0,63.0,-100.00,SSW,210,1.0,1.0,81,-99.99,,,-99.99,,2013-07-07 07:33:00,
2013-07-07 02:53:00,70.0,65.0,-100.00,ESE,120,1.0,1.0,84,-99.99,,,-99.99,,2013-07-07 07:53:00,
2013-07-07 03:12:00,66.0,62.0,-100.00,SE,140,1.0,1.0,87,-99.99,,,-99.99,,2013-07-07 08:12:00,
2013-07-07 03:22:00,66.0,62.0,-100.00,SE,140,1.0,1.0,87,-99.99,,,-99.99,,2013-07-07 08:22:00,
2013-07-07 03:34:00,66.0,62.0,-100.00,SE,140,1.0,1.0,87,-99.99,,,-99.99,,2013-07-07 08:34:00,
2013-07-07 03:44:00,67.0,62.0,-100.00,SSE,155,1.0,1.0,86,-99.99,,,-99.99,,2013-07-07 08:44:00,
2013-07-07 03:53:00,67.0,62.0,-100.00,SSE,155,1.0,1.0,86,-99.99,,,-99.99,,2013-07-07 08:53:00,
2013-07-07 04:02:00,67.0,62.0,-100.00,SSE,155,1.0,1.0,86,-99.99,,,-99.99,,2013-07-07 09:02:00,
2013-07-07 04:12:00,65.0,60.0,-100.00,SE,145,1.0,1.0,84,-99.99,,,-99.99,,2013-07-07 09:12:00,
2013-07-07 04:22:00,65.0,60.0,-100.00,SE,145,1.0,1.0,84,-99.99,,,-99.99,,2013-07-07 09:22:00,
2013-07-07 05:12:00,65.0,61.0,-100.00,WSW,240,1.0,1.0,88,-99.99,,,-99.99,,2013-07-07 10:12:00,
2013-07-07 05:22:00,65.0,61.0,-100.00,WSW,240,1.0,1.0,88,-99.99,,,-99.99,,2013-07-07 10:22:00,
2013-07-07 05:32:00,67.0,65.0,-100.00,SSW,205,1.0,1.0,94,-99.99,,,-99.99,,2013-07-07 10:32:00,
2013-07-07 05:43:00,61.0,57.0,-100.00,SE,140,1.0,1.0,87,-99.99,,,-99.99,,2013-07-07 10:43:00,
2013-07-07 05:52:00,61.0,57.0,-100.00,SE,140,1.0,1.0,87,-99.99,,,-99.99,,2013-07-07 10:52:00,
2013-07-07 06:11:00,62.0,58.0,-100.00,SE,125,1.0,1.0,87,-99.99,,,-99.99,,2013-07-07 11:11:00,
2013-07-07 06:23:00,62.0,58.0,-100.00,SE,125,1.0,1.0,87,-99.99,,,-99.99,,2013-07-07 11:23:00,
2013-07-07 07:22:00,65.0,61.0,-100.00,South,180,1.0,1.0,88,-99.99,,,-99.99,,2013-07-07 12:22:00,
2013-07-07 07:34:00,65.0,61.0,-100.00,South,180,1.0,1.0,88,-99.99,,,-99.99,,2013-07-07 12:34:00,
2013-07-07 07:43:00,70.0,66.0,-100.00,SSW,205,1.0,1.0,86,-99.99,,,-99.99,,2013-07-07 12:43:00,
2013-07-07 07:52:00,70.0,66.0,-100.00,SSW,205,1.0,1.0,86,-99.99,,,-99.99,,2013-07-07 12:52:00,
2013-07-07 08:22:00,72.0,63.0,-100.00,SSW,200,1.0,1.0,75,-99.99,,,-99.99,,2013-07-07 13:22:00,
2013-07-07 09:12:00,74.0,64.0,-100.00,SSW,195,1.0,1.0,70,-99.99,,,-99.99,,2013-07-07 14:12:00,
2013-07-07 09:22:00,74.0,64.0,-100.00,SSW,195,1.0,1.0,70,-99.99,,,-99.99,,2013-07-07 14:22:00,
2013-07-07 10:52:00,82.0,65.0,-100.00,South,185,1.0,1.0,57,-99.99,,,-99.99,,2013-07-07 15:52:00,
2013-07-07 11:11:00,79.0,63.0,-100.00,SSW,200,1.0,1.0,57,-99.99,,,-99.99,,2013-07-07 16:11:00,
2013-07-07 11:23:00,79.0,63.0,-100.00,SSW,200,1.0,1.0,57,-99.99,,,-99.99,,2013-07-07 16:23:00,
2013-07-07 11:53:00,80.0,65.0,-100.00,SSW,200,1.0,1.0,60,-99.99,,,-99.99,,2013-07-07 16:53:00,
2013-07-07 12:02:00,80.0,65.0,-100.00,SSW,200,1.0,1.0,60,-99.99,,,-99.99,,2013-07-07 17:02:00,
2013-07-07 12:12:00,80.0,64.0,-100.00,SSE,155,1.0,1.0,57,-99.99,,,-99.99,,2013-07-07 17:12:00,
2013-07-07 12:22:00,80.0,64.0,-100.00,SSE,155,1.0,1.0,57,-99.99,,,-99.99,,2013-07-07 17:22:00,
2013-07-07 12:43:00,77.0,63.0,-100.00,SSW,205,1.0,1.0,62,-99.99,,,-99.99,,2013-07-07 17:43:00,
2013-07-07 13:11:00,84.0,66.0,-100.00,SSE,155,1.0,1.0,55,-99.99,,,-99.99,,2013-07-07 18:11:00,
2013-07-07 13:22:00,84.0,66.0,-100.00,SSE,155,1.0,1.0,55,-99.99,,,-99.99,,2013-07-07 18:22:00,
2013-07-07 15:11:00,86.0,65.0,-100.00,SSW,195,1.0,1.0,50,-99.99,,,-99.99,,2013-07-07 20:11:00,
2013-07-07 15:22:00,86.0,65.0,-100.00,SSW,195,1.0,1.0,50,-99.99,,,-99.99,,2013-07-07 20:22:00,
2013-07-07 16:11:00,85.0,64.0,-100.00,SSW,200,1.0,1.0,49,-99.99,,,-99.99,,2013-07-07 21:11:00,
2013-07-07 16:43:00,88.0,66.0,-100.00,SSW,200,1.0,1.0,48,-99.99,,,-99.99,,2013-07-07 21:43:00,
2013-07-07 16:53:00,88.0,66.0,-100.00,SSW,200,1.0,1.0,48,-99.99,,,-99.99,,2013-07-07 21:53:00,
2013-07-07 17:43:00,88.0,65.0,-100.00,SSW,210,1.0,1.0,46,-99.99,,,-99.99,,2013-07-07 22:43:00,
2013-07-07 17:54:00,88.0,65.0,-100.00,SSW,210,1.0,1.0,46,-99.99,,,-99.99,,2013-07-07 22:54:00,
2013-07-07 19:22:00,87.0,65.0,-100.00,SW,215,1.0,1.0,48,-99.99,,,-99.99,,2013-07-08 00:22:00,
2013-07-07 20:11:00,84.0,65.0,-100.00,SSW,205,1.0,1.0,54,-99.99,,,-99.99,,2013-07-08 01:11:00,
2013-07-07 20:22:00,84.0,65.0,-100.00,SSW,205,1.0,1.0,54,-99.99,,,-99.99,,2013-07-08 01:22:00,
2013-07-07 21:11:00,75.0,66.0,-100.00,South,180,1.0,1.0,73,-99.99,,,-99.99,,2013-07-08 02:11:00,
2013-07-07 21:22:00,75.0,66.0,-100.00,South,180,1.0,1.0,73,-99.99,,,-99.99,,2013-07-08 02:22:00,
2013-07-07 21:42:00,79.0,69.0,-100.00,South,185,1.0,1.0,70,-99.99,,,-99.99,,2013-07-08 02:42:00,
2013-07-07 21:52:00,79.0,69.0,-100.00,South,185,1.0,1.0,70,-99.99,,,-99.99,,2013-07-08 02:52:00,
2013-07-07 22:01:00,79.0,69.0,-100.00,South,185,1.0,1.0,70,-99.99,,,-99.99,,2013-07-08 03:01:00,
2013-07-07 22:12:00,80.0,69.0,-100.00,South,190,1.0,1.0,68,-99.99,,,-99.99,,2013-07-08 03:12:00,
2013-07-07 22:23:00,80.0,69.0,-100.00,South,190,1.0,1.0,68,-99.99,,,-99.99,,2013-07-08 03:23:00,
2013-07-07 22:42:00,76.0,67.0,-100.00,South,180,1.0,1.0,74,-99.99,,,-99.99,,2013-07-08 03:42:00,
2013-07-07 22:52:00,76.0,67.0,-100.00,South,180,1.0,1.0,74,-99.99,,,-99.99,,2013-07-08 03:52:00,
2013-07-07 23:02:00,76.0,67.0,-100.00,South,180,1.0,1.0,74,-99.99,,,-99.99,,2013-07-08 04:02:00,
2013-07-07 23:12:00,76.0,67.0,-100.00,South,180,1.0,1.0,74,-99.99,,,-99.99,,2013-07-08 04:12:00,
2013-07-07 23:30:00,70.0,63.0,-100.00,SSE,165,1.0,1.0,80,-99.99,,,-99.99,,2013-07-08 04:30:00,
2013-07-07 23:42:00,74.0,67.0,-100.00,South,170,1.0,1.0,79,-99.99,,,-99.99,,2013-07-08 04:42:00,
2013-07-07 23:53:00,74.0,67.0,-100.00,South,170,1.0,1.0,79,-99.99,,,-99.99,,2013-07-08 04:53:00,